Skip to main content
Hanford.Gov
Hanford Meteorological Station

Hanford Meteorological Station

Current and Past 96 Hour Observations
Date Time (PST) Ceiling (ft) Visibility (miles) Liquid Precip* Frozen Precip* Obstruction* Sea-Level Pressure (mbs) Dew Point Temp. (°F) Wind Direction (degrees) Wind Direction (from) Wind Speed (mph) Mixing Height (m) Station Pressure (inches Hg) Ambient Temp. (°F) Wet Bulb Temp. (°F) Rel. Hum. (%) Sky Cover (tenths) Rain (inches) Snow (melted inches) Snow (unmelted inches) Solar Radiation (Langleys / min.) WBGT** (°F)
05/26/2020 1700 UNL 15 1013.4 38 300° WNW 10 1500 29.15 84 59 19 10 0.00 0.00 0.0 0.54 0
05/26/2020 1600 UNL 15 1013.6 38 190° S 6 1500 29.16 84 60 20 10 0.00 0.00 0.0 0.74 0
05/26/2020 1500 UNL 15 1013.7 39 160° SSE 6 1500 29.16 83 59 20 9 0.00 0.00 0.0 1.05 0
05/26/2020 1400 UNL 15 1014.2 42 240° WSW 8 1500 29.18 83 60 23 8 0.00 0.00 0.0 1.20 0
05/26/2020 1300 UNL 15 1014.2 42 240° WSW 8 1500 29.18 83 60 23 8 0.00 0.00 0.0 1.20 0
05/26/2020 1200 UNL 15 1015.0 44 280° W 7 1500 29.20 79 59 29 1 0.00 0.00 0.0 1.32 0
05/26/2020 1100 UNL 15 1015.5 45 210° SSW 8 1500 29.21 77 59 32 4 0.00 0.00 0.0 1.34 0
05/26/2020 1000 UNL 15 1015.7 45 180° S 5 1500 29.22 74 58 35 3 0.00 0.00 0.0 1.13 0
05/26/2020 0900 UNL 15 1016.3 45 330° NNW 9 500 29.23 73 57 36 2 0.00 0.00 0.0 0.92 0
05/26/2020 0800 UNL 15 1016.4 46 290° WNW 6 300 29.24 68 56 43 6 0.00 0.00 0.0 0.71 0
05/26/2020 0700 200 15 1016.6 47 310° NW 7 200 29.24 64 54 53 2 0.00 0.00 0.0 0.46 0
05/26/2020 0600 UNL 15 1016.6 48 210° SSW 5 200 29.24 60 53 64 4 0.00 0.00 0.0 0.22 0
05/26/2020 0500 NA 15 1016.0 50 200° SSW 7 NA 29.22 56 53 82 NA 0.00 0.00 0.0 0.01 0
05/26/2020 0400 NA 15 1015.8 50 200° SSW 4 NA 29.22 56 52 81 NA 0.00 0.00 0.0 0.00 0
05/26/2020 0300 NA 15 1015.8 47 170° S 3 NA 29.22 56 51 73 NA 0.00 0.00 0.0 0.00 0
05/26/2020 0200 NA 15 1015.7 49 250° WSW 10 NA 29.22 58 53 70 NA 0.00 0.00 0.0 0.00 0
05/26/2020 0100 NA 15 1015.7 49 260° W 8 NA 29.22 60 54 65 NA 0.00 0.00 0.0 0.00 0
05/25/2020 2400 NA 15 1015.3 48 240° WSW 8 NA 29.20 60 54 64 NA 0.00 0.00 0.0 0.00 0
05/25/2020 2300 NA 15 1015.2 49 270° W 11 NA 29.20 63 55 59 NA 0.00 0.00 0.0 0.00 0
05/25/2020 2200 NA 15 1015.0 49 300° WNW 15 NA 29.20 64 56 57 NA 0.00 0.00 0.0 0.00 0
05/25/2020 2100 NA 15 1014.8 49 300° WNW 14 NA 29.19 66 56 55 NA 0.00 0.00 0.0 0.00 0
05/25/2020 2000 NA 15 1014.1 48 310° NW 15 NA 29.17 69 57 47 NA 0.00 0.00 0.0 0.02 0
05/25/2020 1900 NA 15 1013.7 49 310° NW 17 NA 29.16 72 59 44 NA 0.00 0.00 0.0 0.09 0
05/25/2020 1800 NA 15 1013.3 50 310° NW 11 NA 29.15 75 60 41 NA 0.00 0.00 0.0 0.29 0
05/25/2020 1700 NA 15 1013.9 50 190° S 7 NA 29.16 74 60 43 NA 0.00 0.00 0.0 0.22 0
05/25/2020 1600 NA 15 1014.2 50 230° SW 8 NA 29.17 76 60 40 NA 0.00 0.00 0.0 1.467 0
05/25/2020 1500 NA 15 1014.5 49 220° SW 7 NA 29.18 76 60 38 NA 0.00 0.00 0.0 0.82 0
05/25/2020 1400 NA 15 1014.9 49 180° S 8 NA 29.19 72 59 43 NA 0.00 0.00 0.0 0.62 0
05/25/2020 1300 NA 15 Light Rain 1015.3 52 190° S 7 NA 29.20 70 59 53 NA trace 0.00 0.0 0.41 0
05/25/2020 1200 NA 15 Light Rain 1015.6 50 190° S 6 NA 29.21 69 58 51 NA trace 0.00 0.0 0.40 0
05/25/2020 1100 NA 15 1015.6 50 250° WSW 3 NA 29.21 68 57 52 NA 0.00 0.00 0.0 0.43 0
05/25/2020 1000 NA 15 1015.7 46 340° NNW 3 NA 29.21 68 56 44 NA 0.00 0.00 0.0 0.47 0
05/25/2020 0900 NA 15 Light Rain 1015.9 46 310° NW 5 NA 29.22 65 54 51 NA trace 0.00 0.0 0.31 0
05/25/2020 0800 NA 15 Light Rain 1015.6 44 360° N 4 NA 29.21 63 53 49 NA trace 0.00 0.0 0.21 0
05/25/2020 0700 NA 15 1015.5 43 40° NE 4 NA 29.21 64 53 46 NA 0.00 0.00 0.0 0.38 0
05/25/2020 0600 NA 15 1015.5 44 140° SE 3 NA 29.21 60 52 53 NA 0.00 0.00 0.0 0.17 0
05/25/2020 0500 NA 15 1015.6 44 150° SSE 6 NA 29.21 55 49 68 NA 0.00 0.00 0.0 0.03 0
05/25/2020 0400 NA 15 1015.7 43 140° SE 2 NA 29.21 55 49 64 NA 0.00 0.00 0.0 0.00 0
05/25/2020 0300 NA 15 1015.9 42 280° W 4 NA 29.22 55 48 60 NA 0.00 0.00 0.0 0.00 0
05/25/2020 0200 NA 15 1015.9 42 300° WNW 3 NA 29.22 58 50 55 NA 0.00 0.00 0.0 0.00 0
05/25/2020 0100 NA 15 1016.1 44 300° WNW 4 NA 29.23 62 53 51 NA 0.00 0.00 0.0 0.00 0
05/24/2020 2400 NA 15 1016.0 45 270° W 8 NA 29.22 63 53 51 NA 0.00 0.00 0.0 0.00 0
05/24/2020 2300 NA 15 1016.2 44 280° W 10 NA 29.23 64 53 47 NA 0.00 0.00 0.0 0.00 0
05/24/2020 2200 NA 15 1016.2 40 360° N 5 NA 29.23 64 52 39 NA 0.00 0.00 0.0 0.00 0
05/24/2020 2100 NA 15 1016.0 39 140° SE 7 NA 29.22 67 52 36 NA 0.00 0.00 0.0 0.00 0
05/24/2020 2000 NA 15 1015.9 37 140° SE 5 NA 29.22 68 52 31 NA 0.00 0.00 0.0 0.02 0
05/24/2020 1900 NA 15 1015.6 36 130° SE 5 NA 29.21 75 55 24 NA 0.00 0.00 0.0 0.14 0
05/24/2020 1800 NA 15 1016.0 36 140° SE 5 NA 29.22 79 56 20 NA 0.00 0.00 0.0 0.33 0
05/24/2020 1700 NA 15 1016.4 35 130° SE 6 NA 29.23 79 56 250 NA 0.00 0.00 0.0 0.59 0
05/24/2020 1600 UNL 15 1016.6 34 160° SSE 5 1500 29.24 79 56 19 4 0.00 0.00 0.0 0.86 0
05/24/2020 1500 UNL 15 1017.3 34 70° ENE 8 1500 29.26 79 56 19 6 0.00 0.00 0.0 1.03 0
05/24/2020 1400 UNL 15 1017.8 34 170° S 6 1500 29.28 78 55 20 6 0.00 0.00 0.0 1.19 0
05/24/2020 1300 UNL 15 1018.6 35 140° SE 6 1300 29.30 75 55 22 4 0.00 0.00 0.0 1.28 0
05/24/2020 1200 13000 15 1019.3 37 140° SE 5 1200 29.31 72 54 26 7 0.00 0.00 0.0 1.04 0
05/24/2020 1100 13000 15 1019.8 37 120° ESE 5 1200 29.33 70 53 29 8 0.00 0.00 0.0 1.06 0
05/24/2020 1000 13000 15 1020.3 37 180° S 4 1300 29.34 68 52 32 9 0.00 0.00 0.0 0.89 0
05/24/2020 0900 13000 15 1020.5 37 340° NNW 4 1000 29.35 62 50 39 9 0.00 0.00 0.0 0.84 0
05/24/2020 0800 13000 15 1020.7 38 290° WNW 5 500 29.35 59 49 45 9 0.00 0.00 0.0 0.56 0
05/24/2020 0700 14000 15 1020.5 38 30° NNE 4 200 29.35 55 47 53 9 0.00 0.00 0.0 0.38 0
05/24/2020 0600 14000 15 1020.4 38 310° NW 2 140 29.34 51 45 62 7 0.00 0.00 0.0 0.16 0
05/24/2020 0500 NA 15 1019.6 38 240° WSW 5 NA 29.32 50 44 63 NA 0.00 0.00 0.0 0.05 0
05/24/2020 0400 NA 15 1019.5 37 250° WSW 5 NA 29.32 48 43 65 NA 0.00 0.00 0.0 0.00 0
05/24/2020 0300 NA 15 1019.0 38 310° NW 7 NA 29.31 52 45 58 NA 0.00 0.00 0.0 0.00 0
05/24/2020 0200 NA 15 1018.9 38 300° WNW 7 NA 29.30 53 46 57 NA 0.00 0.00 0.0 0.00 0
05/24/2020 0100 NA 15 1018.8 38 320° NW 9 NA 29.30 54 46 55 NA 0.00 0.00 0.0 0.00 0
05/23/2020 2400 NA 15 1018.7 38 320° NW 11 NA 29.30 55 47 53 NA 0.00 0.00 0.0 0.00 0
05/23/2020 2300 NA 15 1018.7 39 340° NNW 8 NA 29.29 54 47 55 NA 0.00 0.00 0.0 0.00 0
05/23/2020 2200 NA 15 1018.2 37 150° SSE 8 NA 29.28 56 47 50 NA 0.00 0.00 0.0 0.00 0
05/23/2020 2100 NA 15 1018.1 37 150° SSE 6 NA 29.25 56 47 49 NA 0.00 0.00 0.0 0.00 0
05/23/2020 2000 NA 15 1017.4 37 120° ESE 10 NA 29.26 62 50 38 NA 0.00 0.00 0.0 0.01 0
05/23/2020 1900 NA 15 1017.2 35 120° ESE 10 NA 29.25 68 52 29 NA 0.00 0.00 0.0 0.15 0
05/23/2020 1800 NA 15 1017.2 35 120° ESE 8 NA 29.25 72 53 25 NA 0.00 0.00 0.0 0.37 0
05/23/2020 1700 NA 15 1017.2 34 110° ESE 8 NA 29.25 72 53 24 NA 0.00 0.00 0.0 0.62 0
05/23/2020 1600 UNL 15 1017.1 34 160° SSE 6 1500 29.25 73 53 24 0 0.00 0.00 0.0 0.86 0
05/23/2020 1500 UNL 15 1017.3 34 140° SE 5 1500 29.26 71 53 25 0 0.00 0.00 0.0 1.06 0
05/23/2020 1400 UNL 15 1017.8 33 90° E 6 1500 29.27 71 52 24 1 0.00 0.00 0.0 1.21 0
05/23/2020 1300 UNL 15 1017.9 33 150° SSE 6 1400 29.27 69 52 26 4 0.00 0.00 0.0 1.27 0
05/23/2020 1200 25000 15 1018.4 32 120° ESE 4 1400 29.29 68 51 26 8 0.00 0.00 0.0 1.07 0
05/23/2020 1100 UNL 15 1018.6 31 300° WNW 5 1400 29.29 65 49 28 4 0.00 0.00 0.0 1.26 0
05/23/2020 1000 UNL 15 1018.8 34 180° S 8 1500 29.30 64 49 33 0 0.00 0.00 0.0 1.12 0
05/23/2020 0900 UNL 15 1019.2 33 170° S 4 1500 29.31 62 48 35 0 0.00 0.00 0.0 0.94 0
05/23/2020 0800 UNL 15 1019.1 32 230° SW 94 1300 29.30 58 46 38 0 0.00 0.00 0.0 0.71 0
05/23/2020 0700 UNL 15 1018.8 34 320° NW 4 700 29.30 54 45 46 0 0.00 0.00 0.0 0.46 0
05/23/2020 0600 UNL 15 1018.5 33 310° NW 4 500 29.29 51 43 50 0 0.00 0.00 0.0 0.22 0
05/23/2020 0500 NA 15 1018.2 32 260° W 5 NA 29.28 45 38 61 NA 0.00 0.00 0.0 0.04 0
05/23/2020 0400 NA 15 1018.2 33 200° SSW 6 NA 29.28 45 39 63 NA 0.00 0.00 0.0 0.00 0
05/23/2020 0300 NA 15 1018.0 34 250° WSW 9 NA 29.27 48 41 58 NA 0.00 0.00 0.0 0.00 0
05/23/2020 0200 NA 15 1017.4 35 270° W 10 NA 29.26 52 43 51 NA 0.00 0.00 0.0 0.00 0
05/23/2020 0100 NA 15 1017.4 35 270° W 14 NA 29.26 53 44 50 NA 0.00 0.00 0.0 0.00 0
05/22/2020 2400 NA 15 1017.3 36 280° W 11 NA 29.25 53 44 51 NA 0.00 0.00 0.0 0.00 0
05/22/2020 2300 NA 15 1017.0 36 260° W 10 NA 29.25 53 44 52 NA 0.00 0.00 0.0 0.00 0
05/22/2020 2200 NA 15 1016.4 38 270° W 13 NA 29.23 53 45 55 NA 0.00 0.00 0.0 0.00 0
05/22/2020 2100 NA 15 1015.8 37 290° WNW 14 NA 29.21 56 46 49 NA 0.00 0.00 0.0 0.00 0
05/22/2020 2000 NA 15 1014.7 36 310° NW 22 NA 29.18 59 47 42 NA 0.00 0.00 0.0 0.03 0
05/22/2020 1900 NA 15 1013.9 35 310° NW 19 NA 29.16 61 48 38 NA 0.00 0.00 0.0 0.08 0
05/22/2020 1800 NA 15 1014.1 34 320° NW 23 NA 29.16 63 49 34 NA 0.00 0.00 0.0 0.23 0
NA = information not available due to unmanned weather station
*= This weather occurred at observation time or during the hour
** WBGT is the Web Bulb Global Temperature Outside observed at HMS (0=unavailable)
NA = information not available due to unmanned weather station
*= This weather occurred at observation time or during the hour
** WBGT is the Web Bulb Global Temperature Outside observed at HMS (0=unavailable)